Time;durP1;ratioP1;P1;durP2;ratioP2;P2;SDS_P1;SDS_P2;PMS_P1;PMS_P2;Temp;Humidity;BMP_temperature;BMP_pressure;BME280_temperature;BME280_humidity;BME280_pressure;Samples;Min_cycle;Max_cycle;Signal;HPM_P1;HPM_P2
2023/11/30 00:01:07;;;;;;;7.70;6.73;;;6.10;99.90;;;;;;5000656;28;20449;-26
2023/11/30 00:03:36;;;;;;;8.73;6.97;;;6.10;99.90;;;;;;4999409;28;20959;-27
2023/11/30 00:06:07;;;;;;;9.10;5.97;;;6.10;99.90;;;;;;5005513;28;20199;-26
2023/11/30 00:08:33;;;;;;;9.37;7.30;;;6.20;99.90;;;;;;5001224;28;20943;-26
2023/11/30 00:10:59;;;;;;;7.53;6.73;;;6.20;99.90;;;;;;4979081;28;20435;-26
2023/11/30 00:13:25;;;;;;;6.53;5.80;;;6.20;99.90;;;;;;4998882;28;20438;-26
2023/11/30 00:15:54;;;;;;;7.90;6.90;;;6.20;99.90;;;;;;4982838;28;20892;-26
2023/11/30 00:18:23;;;;;;;8.40;6.07;;;6.10;99.90;;;;;;5000823;28;20423;-26
2023/11/30 00:20:49;;;;;;;9.00;7.03;;;6.10;99.90;;;;;;4999908;28;20241;-25
2023/11/30 00:23:17;;;;;;;6.93;5.85;;;6.10;99.90;;;;;;4992981;28;20465;-26
2023/11/30 00:25:43;;;;;;;7.53;6.72;;;6.10;99.90;;;;;;5000567;28;20185;-26
2023/11/30 00:28:09;;;;;;;7.83;7.03;;;6.20;99.90;;;;;;5000904;28;20190;-26
2023/11/30 00:30:37;;;;;;;7.53;6.68;;;6.20;99.90;;;;;;4998574;28;21061;-26
2023/11/30 00:33:04;;;;;;;7.33;6.53;;;6.20;99.90;;;;;;4995552;28;20578;-26
2023/11/30 00:35:30;;;;;;;8.37;6.40;;;6.20;99.90;;;;;;5000119;28;20428;-26
2023/11/30 00:37:59;;;;;;;9.00;6.60;;;6.30;99.90;;;;;;4999452;28;20446;-26
2023/11/30 00:40:27;;;;;;;9.00;6.67;;;6.20;99.90;;;;;;4997141;28;21061;-26
2023/11/30 00:42:58;;;;;;;6.77;6.03;;;6.20;99.90;;;;;;5001494;28;20462;-26
2023/11/30 00:45:24;;;;;;;7.65;6.80;;;6.20;99.90;;;;;;4997939;28;20496;-29
2023/11/30 00:47:52;;;;;;;12.70;7.63;;;6.20;99.90;;;;;;4999619;28;20202;-26
2023/11/30 00:50:18;;;;;;;12.48;7.00;;;6.20;99.90;;;;;;5010706;28;20683;-26
2023/11/30 00:52:46;;;;;;;7.67;6.07;;;6.20;99.90;;;;;;4963457;28;20227;-26
2023/11/30 00:55:14;;;;;;;6.60;5.87;;;6.20;99.90;;;;;;5008302;28;20518;-26
2023/11/30 00:57:43;;;;;;;7.97;6.57;;;6.10;99.90;;;;;;5011414;28;20441;-26
2023/11/30 01:00:09;;;;;;;8.52;7.65;;;6.10;99.90;;;;;;4983353;28;20199;-26
2023/11/30 01:02:38;;;;;;;7.00;6.30;;;6.10;99.90;;;;;;4980312;28;20621;-26
2023/11/30 01:05:04;;;;;;;7.55;6.85;;;6.10;99.90;;;;;;4994126;28;20488;-26
2023/11/30 01:07:33;;;;;;;7.90;6.67;;;6.10;99.90;;;;;;5000724;28;20186;-27
2023/11/30 01:10:01;;;;;;;8.50;6.20;;;6.10;99.90;;;;;;4998815;28;20534;-27
2023/11/30 01:12:27;;;;;;;9.48;7.00;;;6.00;99.90;;;;;;4998647;28;21215;-27
2023/11/30 01:14:56;;;;;;;8.13;6.85;;;6.00;99.90;;;;;;4999339;28;20181;-26
2023/11/30 01:17:25;;;;;;;9.93;7.27;;;6.10;99.90;;;;;;5000839;28;20247;-26
2023/11/30 01:19:51;;;;;;;9.30;6.45;;;6.10;99.90;;;;;;4997875;28;20515;-26
2023/11/30 01:22:20;;;;;;;7.43;6.63;;;6.10;99.90;;;;;;4957737;28;20195;-26
2023/11/30 01:24:49;;;;;;;12.87;7.13;;;6.20;99.90;;;;;;4996631;28;20459;-27
2023/11/30 01:27:16;;;;;;;9.48;6.65;;;6.10;99.90;;;;;;4998224;28;20471;-26
2023/11/30 01:29:45;;;;;;;8.05;6.15;;;6.10;99.90;;;;;;4994401;28;20212;-26
2023/11/30 01:32:11;;;;;;;9.23;6.78;;;6.10;99.90;;;;;;4982015;28;20212;-26
2023/11/30 01:34:38;;;;;;;9.15;7.18;;;6.10;99.90;;;;;;4998920;28;20235;-26
2023/11/30 01:37:06;;;;;;;7.07;6.15;;;6.10;99.90;;;;;;5014256;28;20219;-26
2023/11/30 01:39:32;;;;;;;7.17;6.47;;;6.10;99.90;;;;;;4981483;28;20190;-26
2023/11/30 01:42:06;;;;;;;8.77;7.87;;;6.10;99.90;;;;;;5012204;28;20716;-25
2023/11/30 01:44:33;;;;;;;9.73;7.90;;;6.10;99.90;;;;;;4976967;28;20457;-26
2023/11/30 01:47:01;;;;;;;8.23;6.77;;;6.10;99.90;;;;;;4990539;28;20993;-26
2023/11/30 01:49:27;;;;;;;7.87;5.87;;;6.00;99.90;;;;;;4995492;28;20477;-26
2023/11/30 01:51:54;;;;;;;8.93;7.38;;;6.00;99.90;;;;;;4997840;28;20446;-26
2023/11/30 01:54:23;;;;;;;11.50;7.32;;;6.10;99.90;;;;;;4995291;28;20204;-27
2023/11/30 01:56:51;;;;;;;7.60;6.40;;;6.10;99.90;;;;;;4997474;28;20210;-26
2023/11/30 01:59:18;;;;;;;8.77;7.00;;;6.10;99.90;;;;;;4989618;28;20745;-26
2023/11/30 02:01:45;;;;;;;10.43;7.07;;;6.10;99.90;;;;;;5010360;28;20206;-27
2023/11/30 02:04:15;;;;;;;8.93;6.80;;;6.10;99.90;;;;;;4996739;28;20503;-27
2023/11/30 02:06:46;;;;;;;8.97;7.00;;;6.10;99.90;;;;;;5005100;28;21160;-26
2023/11/30 02:09:13;;;;;;;7.50;6.57;;;6.10;99.90;;;;;;4996947;28;20458;-26
2023/11/30 02:11:40;;;;;;;9.70;8.03;;;6.10;99.90;;;;;;4997297;28;20218;-26
2023/11/30 02:14:08;;;;;;;8.07;6.30;;;6.00;99.90;;;;;;4981307;28;20569;-26
2023/11/30 02:16:34;;;;;;;9.10;7.00;;;6.10;99.90;;;;;;4996439;28;20440;-27
2023/11/30 02:19:00;;;;;;;9.95;7.22;;;6.00;99.90;;;;;;4994216;28;21037;-26
2023/11/30 02:21:28;;;;;;;8.40;6.23;;;6.00;99.90;;;;;;4980966;28;21027;-26
2023/11/30 02:23:54;;;;;;;7.43;6.07;;;6.00;99.90;;;;;;4991071;28;21357;-26
2023/11/30 02:26:22;;;;;;;10.13;6.80;;;6.00;99.90;;;;;;4997615;28;20435;-26
2023/11/30 02:28:48;;;;;;;7.47;6.70;;;6.10;99.90;;;;;;4989308;28;20449;-26
2023/11/30 02:31:16;;;;;;;7.80;6.93;;;6.00;99.90;;;;;;4995570;28;20432;-26
2023/11/30 02:33:44;;;;;;;10.07;6.80;;;6.00;99.90;;;;;;4997234;28;20476;-26
2023/11/30 02:36:13;;;;;;;7.05;6.32;;;6.00;99.90;;;;;;4996811;28;20454;-26
2023/11/30 02:38:39;;;;;;;8.60;7.00;;;6.00;99.90;;;;;;4989345;28;20200;-26
2023/11/30 02:41:08;;;;;;;8.00;6.37;;;6.00;99.90;;;;;;5013834;28;20190;-26
2023/11/30 02:43:34;;;;;;;9.43;7.45;;;6.00;99.90;;;;;;4973873;28;21028;-26
2023/11/30 02:46:02;;;;;;;8.27;7.07;;;6.00;99.90;;;;;;4978944;28;20181;-26
2023/11/30 02:48:28;;;;;;;7.63;6.90;;;6.00;99.90;;;;;;4976036;28;20425;-26
2023/11/30 02:50:54;;;;;;;10.53;7.47;;;6.00;99.90;;;;;;4971938;28;20483;-26
2023/11/30 02:53:27;;;;;;;8.17;5.90;;;6.00;99.90;;;;;;4996598;28;20450;-26
2023/11/30 02:55:53;;;;;;;8.63;6.77;;;6.00;99.90;;;;;;4996957;28;20441;-26
2023/11/30 02:58:21;;;;;;;8.40;6.80;;;6.00;99.90;;;;;;5012961;28;20440;-26
2023/11/30 03:00:50;;;;;;;7.50;6.53;;;6.00;99.90;;;;;;4997815;28;20432;-27
2023/11/30 03:03:17;;;;;;;6.30;5.70;;;6.00;99.90;;;;;;4996344;28;20477;-26
2023/11/30 03:05:43;;;;;;;6.80;6.07;;;6.00;99.90;;;;;;4995269;28;21103;-26
2023/11/30 03:08:09;;;;;;;6.90;6.30;;;6.00;99.90;;;;;;4980045;28;20521;-26
2023/11/30 03:10:35;;;;;;;7.80;7.00;;;6.00;99.90;;;;;;4980774;28;20469;-27
2023/11/30 03:13:01;;;;;;;7.93;7.13;;;5.90;99.90;;;;;;4981366;28;20504;-26
2023/11/30 03:15:30;;;;;;;8.00;7.20;;;5.90;99.90;;;;;;5000738;28;20450;-27
2023/11/30 03:17:56;;;;;;;6.78;6.15;;;5.90;99.90;;;;;;5002148;28;20178;-26
2023/11/30 03:20:22;;;;;;;9.90;7.73;;;6.00;99.90;;;;;;4984505;28;20771;-26
2023/11/30 03:22:48;;;;;;;11.07;7.93;;;5.90;99.90;;;;;;4984038;28;21316;-27
2023/11/30 03:25:20;;;;;;;8.10;6.60;;;5.90;99.90;;;;;;5000664;28;20289;-26
2023/11/30 03:27:46;;;;;;;8.87;6.83;;;5.90;99.90;;;;;;5016384;28;20988;-27
2023/11/30 03:30:12;;;;;;;8.00;6.75;;;5.90;99.90;;;;;;5001166;28;20486;-26
2023/11/30 03:32:40;;;;;;;8.83;7.17;;;5.90;99.90;;;;;;5014564;23;20628;-29
2023/11/30 03:35:06;;;;;;;8.68;7.50;;;5.90;99.90;;;;;;5014198;28;20766;-29
2023/11/30 03:37:40;;;;;;;7.97;7.10;;;5.90;99.90;;;;;;5018305;28;20463;-29
2023/11/30 03:40:09;;;;;;;8.23;7.43;;;6.00;99.90;;;;;;5022790;28;21212;-28
2023/11/30 03:42:35;;;;;;;8.68;6.97;;;6.00;99.90;;;;;;5018675;28;20447;-29
2023/11/30 03:45:01;;;;;;;8.30;6.77;;;6.00;99.90;;;;;;5023402;28;20252;-28
2023/11/30 03:47:29;;;;;;;9.57;7.00;;;6.20;99.90;;;;;;5024255;28;21277;-29
2023/11/30 03:49:55;;;;;;;7.40;6.50;;;6.00;99.90;;;;;;5039567;28;20477;-28
2023/11/30 03:52:21;;;;;;;8.87;7.17;;;6.00;99.90;;;;;;5022924;28;20424;-29
2023/11/30 03:54:47;;;;;;;8.17;6.93;;;6.00;99.90;;;;;;5018342;28;20495;-28
2023/11/30 03:57:13;;;;;;;8.90;6.97;;;6.00;99.90;;;;;;5029113;28;20550;-28
2023/11/30 03:59:39;;;;;;;8.03;6.83;;;6.00;99.90;;;;;;5035241;28;20432;-28
2023/11/30 04:02:09;;;;;;;8.47;6.90;;;5.90;99.90;;;;;;5002846;28;20424;-27
2023/11/30 04:04:38;;;;;;;8.20;7.40;;;5.90;99.90;;;;;;5032711;28;21295;-28
2023/11/30 04:07:05;;;;;;;8.48;7.35;;;5.90;99.90;;;;;;5015889;28;20877;-29
2023/11/30 04:09:32;;;;;;;7.93;7.13;;;5.90;99.90;;;;;;5021588;28;20257;-29
2023/11/30 04:12:02;;;;;;;9.70;7.43;;;5.90;99.90;;;;;;5039712;28;20426;-29
2023/11/30 04:14:31;;;;;;;8.52;7.63;;;5.90;99.90;;;;;;5034683;28;20237;-29
2023/11/30 04:16:57;;;;;;;8.60;7.70;;;6.10;99.90;;;;;;5023085;28;20355;-29
2023/11/30 04:19:23;;;;;;;8.50;7.10;;;5.90;99.90;;;;;;5039079;28;20537;-28
2023/11/30 04:21:50;;;;;;;8.70;7.10;;;6.00;99.90;;;;;;5023035;28;20292;-29
2023/11/30 04:24:16;;;;;;;8.93;7.88;;;6.00;99.90;;;;;;5040428;28;20461;-29
2023/11/30 04:26:42;;;;;;;9.20;7.40;;;6.00;99.90;;;;;;5036790;28;20212;-29
2023/11/30 04:29:08;;;;;;;8.97;8.03;;;6.00;99.90;;;;;;5040429;28;20476;-31
2023/11/30 04:31:36;;;;;;;10.88;9.02;;;6.00;99.90;;;;;;5036402;28;20432;-29
2023/11/30 04:34:04;;;;;;;9.70;8.20;;;6.00;99.90;;;;;;5020707;28;20213;-29
2023/11/30 04:36:32;;;;;;;10.77;8.87;;;6.00;99.90;;;;;;5036696;28;20422;-29
2023/11/30 04:38:58;;;;;;;9.87;8.10;;;5.90;99.90;;;;;;5023753;28;20611;-29
2023/11/30 04:41:24;;;;;;;9.97;8.27;;;5.90;99.90;;;;;;5008274;28;20465;-28
2023/11/30 04:43:53;;;;;;;8.87;7.30;;;5.90;99.90;;;;;;5011382;28;20452;-29
2023/11/30 04:46:20;;;;;;;9.65;7.65;;;5.90;99.90;;;;;;5014426;28;20514;-29
2023/11/30 04:48:47;;;;;;;10.60;7.50;;;5.90;99.90;;;;;;5039503;28;20199;-28
2023/11/30 04:51:14;;;;;;;11.90;8.20;;;5.90;99.90;;;;;;5001793;28;20912;-29
2023/11/30 04:53:45;;;;;;;11.93;9.02;;;5.90;99.90;;;;;;5000095;28;20741;-28
2023/11/30 04:56:14;;;;;;;10.87;8.90;;;5.90;99.90;;;;;;5015765;28;20191;-29
2023/11/30 04:58:40;;;;;;;12.63;7.97;;;5.90;99.90;;;;;;4997890;28;20499;-29
2023/11/30 05:01:06;;;;;;;9.43;8.00;;;5.90;99.90;;;;;;5031391;28;20585;-29
2023/11/30 05:03:35;;;;;;;9.60;8.23;;;5.90;99.90;;;;;;5035895;28;20437;-36
2023/11/30 05:06:02;;;;;;;13.05;8.88;;;5.90;99.90;;;;;;5039599;28;20439;-29
2023/11/30 05:08:32;;;;;;;11.18;8.27;;;5.90;99.90;;;;;;5014426;28;20678;-29
2023/11/30 05:11:00;;;;;;;14.20;8.15;;;5.90;99.90;;;;;;5018917;28;20217;-29
2023/11/30 05:13:27;;;;;;;12.50;8.93;;;5.80;99.90;;;;;;5019192;28;20739;-29
2023/11/30 05:15:53;;;;;;;11.68;9.55;;;5.90;99.90;;;;;;5039004;28;20550;-28
2023/11/30 05:18:23;;;;;;;11.40;8.90;;;5.90;99.90;;;;;;5013450;28;20197;-29
2023/11/30 05:20:49;;;;;;;10.43;8.77;;;5.90;99.90;;;;;;5009687;28;21304;-29
2023/11/30 05:23:15;;;;;;;10.50;8.70;;;5.90;99.90;;;;;;4998078;28;20428;-28
2023/11/30 05:25:44;;;;;;;13.80;10.45;;;5.90;99.90;;;;;;5021749;28;20455;-28
2023/11/30 05:28:10;;;;;;;14.48;9.35;;;5.80;99.90;;;;;;5035880;28;20198;-29
2023/11/30 05:30:36;;;;;;;12.43;9.10;;;5.80;99.90;;;;;;5002159;28;20229;-29
2023/11/30 05:33:05;;;;;;;13.43;9.73;;;5.90;99.90;;;;;;5008846;28;20521;-29
2023/11/30 05:35:37;;;;;;;12.13;9.10;;;5.90;99.90;;;;;;5035336;28;20187;-29
2023/11/30 05:38:04;;;;;;;13.03;9.83;;;5.90;99.90;;;;;;5020995;28;20454;-29
2023/11/30 05:40:32;;;;;;;12.37;9.80;;;5.90;99.90;;;;;;5016757;28;20810;-29
2023/11/30 05:42:58;;;;;;;13.97;9.70;;;5.90;99.90;;;;;;5001643;28;20543;-28
2023/11/30 05:45:27;;;;;;;11.80;9.47;;;5.90;99.90;;;;;;5021567;28;20813;-29
2023/11/30 05:47:53;;;;;;;11.50;9.63;;;5.90;99.90;;;;;;4998978;28;20438;-29
2023/11/30 05:50:19;;;;;;;13.13;9.35;;;5.90;99.90;;;;;;5038228;28;20227;-29
2023/11/30 05:52:45;;;;;;;11.93;10.40;;;5.90;99.90;;;;;;5037761;28;20458;-29
2023/11/30 05:55:15;;;;;;;13.00;9.13;;;6.00;99.90;;;;;;5030011;28;20189;-29
2023/11/30 05:57:41;;;;;;;11.77;8.70;;;6.00;99.90;;;;;;5015625;28;20215;-29
2023/11/30 06:00:12;;;;;;;11.90;8.97;;;6.00;99.90;;;;;;5018262;28;20427;-29
2023/11/30 06:02:39;;;;;;;13.75;10.05;;;6.00;99.90;;;;;;5031101;28;20459;-29
2023/11/30 06:05:08;;;;;;;10.73;8.87;;;6.00;99.90;;;;;;5020925;28;20213;-29
2023/11/30 06:07:37;;;;;;;12.00;9.03;;;6.00;99.90;;;;;;4982572;28;20534;-29
2023/11/30 06:10:03;;;;;;;11.57;9.13;;;6.00;99.90;;;;;;5032919;28;20517;-29
2023/11/30 06:12:31;;;;;;;12.25;9.85;;;5.90;99.90;;;;;;5002837;28;20439;-28
2023/11/30 06:15:02;;;;;;;11.70;8.57;;;5.90;99.90;;;;;;5019429;28;20211;-29
2023/11/30 06:17:30;;;;;;;12.00;9.23;;;6.00;99.90;;;;;;5013574;28;20481;-28
2023/11/30 06:19:56;;;;;;;11.77;9.00;;;5.90;99.90;;;;;;5014245;28;20194;-29
2023/11/30 06:22:22;;;;;;;11.20;9.17;;;6.00;99.90;;;;;;5037642;28;20521;-29
2023/11/30 06:24:49;;;;;;;11.17;9.90;;;6.00;99.90;;;;;;5036488;28;21360;-29
2023/11/30 06:27:18;;;;;;;12.48;8.75;;;5.90;99.90;;;;;;5035554;28;21399;-28
2023/11/30 06:29:46;;;;;;;12.30;9.20;;;5.90;99.90;;;;;;5020202;28;20212;-29
2023/11/30 06:32:15;;;;;;;11.38;8.75;;;5.90;99.90;;;;;;5035860;28;20442;-29
2023/11/30 06:34:40;;;;;;;12.07;9.88;;;5.90;99.90;;;;;;5018039;28;20214;-29
2023/11/30 06:37:07;;;;;;;9.40;7.73;;;5.90;99.90;;;;;;5038044;28;20235;-27
2023/11/30 06:39:35;;;;;;;13.32;9.75;;;5.90;99.90;;;;;;5016742;28;21204;-29
2023/11/30 06:42:01;;;;;;;12.20;9.60;;;5.90;99.90;;;;;;5028820;28;20198;-28
2023/11/30 06:44:29;;;;;;;13.30;9.90;;;6.00;99.90;;;;;;5015683;28;20476;-28
2023/11/30 06:46:55;;;;;;;11.75;9.40;;;5.90;99.90;;;;;;4994158;28;21232;-29
2023/11/30 06:49:24;;;;;;;13.00;9.03;;;5.90;99.90;;;;;;5036568;28;20303;-29
2023/11/30 06:51:50;;;;;;;10.97;8.80;;;5.90;99.90;;;;;;5018776;28;20467;-29
2023/11/30 06:54:16;;;;;;;12.77;8.30;;;5.90;99.90;;;;;;5017208;28;20446;-28
2023/11/30 06:56:47;;;;;;;14.55;10.73;;;5.90;99.90;;;;;;5033050;28;20199;-28
2023/11/30 06:59:13;;;;;;;11.75;9.32;;;5.90;99.90;;;;;;5033074;28;20189;-28
2023/11/30 07:01:44;;;;;;;12.10;9.40;;;5.90;99.90;;;;;;5029263;28;20289;-29
2023/11/30 07:04:12;;;;;;;12.10;9.10;;;6.00;99.90;;;;;;5027506;28;20450;-29
2023/11/30 07:06:43;;;;;;;11.67;8.83;;;5.90;99.90;;;;;;5031109;28;20638;-29
2023/11/30 07:09:12;;;;;;;10.25;8.40;;;5.90;99.90;;;;;;5015383;28;21155;-28
2023/11/30 07:11:39;;;;;;;12.77;8.88;;;5.90;99.90;;;;;;5033819;28;20188;-29
2023/11/30 07:14:07;;;;;;;12.23;9.20;;;5.90;99.90;;;;;;5019448;28;20211;-29
2023/11/30 07:16:38;;;;;;;9.97;8.77;;;5.90;99.90;;;;;;5017356;28;21394;-29
2023/11/30 07:19:06;;;;;;;15.40;10.05;;;5.90;99.90;;;;;;5036695;28;20869;-29
2023/11/30 07:21:32;;;;;;;11.02;8.32;;;5.90;99.90;;;;;;5037759;28;20178;-29
2023/11/30 07:24:02;;;;;;;12.07;9.87;;;5.90;99.90;;;;;;5012669;28;20211;-29
2023/11/30 07:26:30;;;;;;;13.25;9.35;;;5.90;99.90;;;;;;5009058;28;20569;-29
2023/11/30 07:28:56;;;;;;;11.83;9.93;;;5.90;99.90;;;;;;5032118;28;20191;-28
2023/11/30 07:31:26;;;;;;;14.60;9.38;;;5.80;99.90;;;;;;4984855;28;20445;-28
2023/11/30 07:33:54;;;;;;;11.00;8.90;;;5.80;99.90;;;;;;5032971;28;20494;-28
2023/11/30 07:36:20;;;;;;;11.80;9.32;;;5.90;99.90;;;;;;5014000;28;20466;-29
2023/11/30 07:38:51;;;;;;;14.80;9.73;;;5.90;99.90;;;;;;5018502;28;20277;-29
2023/11/30 07:41:19;;;;;;;12.82;10.25;;;6.00;99.90;;;;;;5034064;28;20439;-28
2023/11/30 07:43:45;;;;;;;12.23;9.32;;;5.90;99.90;;;;;;5018318;28;20212;-29
2023/11/30 07:46:11;;;;;;;12.90;9.60;;;5.90;99.90;;;;;;5035004;28;20231;-30
2023/11/30 07:48:42;;;;;;;12.03;9.50;;;6.00;99.90;;;;;;5025862;28;20466;-29
2023/11/30 07:51:09;;;;;;;11.80;9.48;;;6.00;99.90;;;;;;5013041;28;20491;-29
2023/11/30 07:53:35;;;;;;;12.73;9.90;;;5.90;99.90;;;;;;5036653;28;20200;-28
2023/11/30 07:56:03;;;;;;;14.65;9.50;;;5.90;99.90;;;;;;5035977;28;21049;-28
2023/11/30 07:58:32;;;;;;;12.10;9.05;;;5.90;99.90;;;;;;5030203;28;20274;-29
2023/11/30 08:01:00;;;;;;;13.30;9.97;;;5.90;99.90;;;;;;5027120;28;20193;-28
2023/11/30 08:03:27;;;;;;;12.00;9.17;;;5.90;99.90;;;;;;5016431;28;20449;-29
2023/11/30 08:05:53;;;;;;;11.90;8.90;;;5.80;99.90;;;;;;5037470;28;20595;-29
2023/11/30 08:08:19;;;;;;;13.63;9.75;;;5.90;99.90;;;;;;5039220;28;21167;-28
2023/11/30 08:10:48;;;;;;;12.53;9.47;;;5.90;99.90;;;;;;5040295;28;20208;-28
2023/11/30 08:13:15;;;;;;;10.87;9.00;;;5.90;99.90;;;;;;5150827;22;20911;-39
2023/11/30 08:15:42;;;;;;;13.57;9.70;;;5.90;99.90;;;;;;5035761;28;20925;-40
2023/11/30 08:18:08;;;;;;;11.80;8.88;;;5.90;99.90;;;;;;5053526;28;20435;-33
2023/11/30 08:20:37;;;;;;;11.68;8.68;;;5.80;99.90;;;;;;5024705;28;20198;-40
2023/11/30 08:23:03;;;;;;;13.13;9.03;;;5.90;99.90;;;;;;5022461;28;20319;-41
2023/11/30 08:25:33;;;;;;;10.73;9.13;;;5.90;99.90;;;;;;5041523;28;20536;-38
2023/11/30 08:28:00;;;;;;;13.50;9.35;;;5.90;99.90;;;;;;5039787;28;20876;-38
2023/11/30 08:30:26;;;;;;;13.67;9.13;;;5.90;99.90;;;;;;5041277;28;20283;-35
2023/11/30 08:32:52;;;;;;;13.93;9.50;;;5.90;99.90;;;;;;5034895;28;20464;-38
2023/11/30 08:35:19;;;;;;;10.03;7.77;;;5.90;99.90;;;;;;5014237;28;20460;-34
2023/11/30 08:37:47;;;;;;;13.40;9.70;;;5.80;99.90;;;;;;5031642;28;20419;-37
2023/11/30 08:40:41;;;;;;;11.52;8.45;;;5.80;99.90;;;;;;5028061;28;20684;-34
2023/11/30 08:43:08;;;;;;;14.20;9.02;;;5.90;99.90;;;;;;5026703;28;20273;-37
2023/11/30 08:45:37;;;;;;;12.13;9.10;;;5.80;99.90;;;;;;5029362;28;20196;-34
2023/11/30 08:48:05;;;;;;;12.80;9.00;;;5.80;99.90;;;;;;5037390;28;20216;-33
2023/11/30 08:50:31;;;;;;;12.20;9.05;;;5.80;99.90;;;;;;5039434;28;20464;-37
2023/11/30 08:52:57;;;;;;;14.00;9.87;;;5.80;99.90;;;;;;5032804;28;20210;-38
2023/11/30 08:55:24;;;;;;;11.18;9.23;;;5.80;99.90;;;;;;5020373;28;20427;-34
2023/11/30 08:57:50;;;;;;;11.53;8.47;;;5.80;99.90;;;;;;5035239;28;20277;-36
2023/11/30 09:00:17;;;;;;;10.70;9.32;;;5.80;99.90;;;;;;5041410;28;20466;-32
2023/11/30 09:02:43;;;;;;;12.30;8.90;;;5.80;99.90;;;;;;5030965;28;20252;-38
2023/11/30 09:05:12;;;;;;;11.43;9.23;;;5.80;99.90;;;;;;5039528;28;20688;-34
2023/11/30 09:07:40;;;;;;;12.47;8.97;;;5.80;99.90;;;;;;5036806;28;20465;-34
2023/11/30 09:10:08;;;;;;;12.23;9.07;;;5.70;99.90;;;;;;5024129;28;20585;-38
2023/11/30 09:12:34;;;;;;;13.98;8.85;;;5.80;99.90;;;;;;5033181;28;20184;-36
2023/11/30 09:15:00;;;;;;;9.80;8.20;;;5.90;99.90;;;;;;5055436;28;20188;-39
2023/11/30 09:17:29;;;;;;;10.95;8.50;;;5.80;99.90;;;;;;5017718;28;20420;-38
2023/11/30 09:19:57;;;;;;;13.33;9.63;;;5.90;99.90;;;;;;5032544;28;20197;-39
2023/11/30 09:22:23;;;;;;;11.73;9.45;;;5.80;99.90;;;;;;5025382;28;20423;-40
2023/11/30 09:24:50;;;;;;;12.20;9.17;;;5.80;99.90;;;;;;5030577;28;20209;-41
2023/11/30 09:27:17;;;;;;;12.70;9.45;;;5.90;99.90;;;;;;5031901;28;20412;-39
2023/11/30 09:29:43;;;;;;;12.13;8.90;;;5.90;99.90;;;;;;5038040;28;20249;-38
2023/11/30 09:32:11;;;;;;;11.80;9.13;;;5.80;99.90;;;;;;5034659;28;20433;-39
2023/11/30 09:34:38;;;;;;;12.83;9.53;;;5.90;99.90;;;;;;5032308;28;20466;-35
2023/11/30 09:37:09;;;;;;;15.90;9.33;;;5.80;99.90;;;;;;5052003;28;20855;-40
2023/11/30 09:39:35;;;;;;;11.07;9.00;;;5.90;99.90;;;;;;5038398;28;20499;-39
2023/11/30 09:42:05;;;;;;;10.90;8.30;;;5.80;99.90;;;;;;5043225;28;20204;-38
2023/11/30 09:44:33;;;;;;;11.15;8.68;;;5.80;99.90;;;;;;5039236;28;20467;-32
2023/11/30 09:46:59;;;;;;;11.50;8.80;;;5.80;99.90;;;;;;5031413;28;20280;-35
2023/11/30 09:49:27;;;;;;;14.10;9.73;;;5.80;99.90;;;;;;5016373;28;20528;-36
2023/11/30 09:51:53;;;;;;;10.07;8.45;;;5.80;99.90;;;;;;5040286;28;20193;-39
2023/11/30 09:54:23;;;;;;;12.85;9.18;;;5.80;99.90;;;;;;5050367;28;20217;-40
2023/11/30 09:56:53;;;;;;;12.85;9.02;;;5.90;99.90;;;;;;5004012;28;20181;-32
2023/11/30 09:59:21;;;;;;;10.10;8.05;;;5.80;99.90;;;;;;5033619;28;20673;-39
2023/11/30 10:01:55;;;;;;;11.43;8.97;;;5.90;99.90;;;;;;5038316;28;20235;-39
2023/11/30 10:04:25;;;;;;;10.98;7.85;;;5.80;99.90;;;;;;5033217;28;20443;-41
2023/11/30 10:06:55;;;;;;;12.60;8.88;;;5.90;99.90;;;;;;5021095;28;20196;-39
2023/11/30 10:09:23;;;;;;;10.55;8.00;;;5.90;99.90;;;;;;5041428;28;20377;-37
2023/11/30 10:11:49;;;;;;;12.20;9.17;;;5.90;99.90;;;;;;5041377;28;20699;-41
2023/11/30 10:14:17;;;;;;;13.82;9.60;;;6.00;99.90;;;;;;5042940;28;20512;-41
2023/11/30 10:16:44;;;;;;;14.03;9.20;;;6.00;99.90;;;;;;5024573;28;20169;-40
2023/11/30 10:19:13;;;;;;;11.40;8.20;;;6.00;99.90;;;;;;5034283;28;20428;-39
2023/11/30 10:21:39;;;;;;;11.33;8.20;;;6.00;99.90;;;;;;5057564;28;20428;-38
2023/11/30 10:24:07;;;;;;;13.10;9.15;;;6.00;99.90;;;;;;5039755;28;20556;-41
2023/11/30 10:26:35;;;;;;;12.07;9.10;;;5.90;99.90;;;;;;5032413;28;20272;-39
2023/11/30 10:29:06;;;;;;;10.48;7.90;;;5.90;99.90;;;;;;5040259;28;20792;-38
2023/11/30 10:31:39;;;;;;;9.43;8.25;;;5.90;99.90;;;;;;5043214;28;20202;-41
2023/11/30 10:34:11;;;;;;;12.57;8.80;;;5.90;99.90;;;;;;5042125;28;20619;-31
2023/11/30 10:36:40;;;;;;;9.65;7.60;;;5.90;99.90;;;;;;5042295;28;20423;-38
2023/11/30 10:39:18;;;;;;;13.23;7.90;;;5.90;99.90;;;;;;5035217;28;20227;-38
2023/11/30 10:41:52;;;;;;;10.00;7.53;;;5.90;99.90;;;;;;5041105;28;20197;-41
2023/11/30 10:44:27;;;;;;;11.10;8.40;;;6.00;99.90;;;;;;5042649;28;20958;-40
2023/11/30 10:46:55;;;;;;;10.30;8.00;;;6.00;99.90;;;;;;5039555;28;20428;-38
2023/11/30 10:49:25;;;;;;;10.07;7.50;;;6.00;99.90;;;;;;5024745;28;21039;-38
2023/11/30 10:51:53;;;;;;;9.83;7.50;;;6.00;99.90;;;;;;5039757;28;20465;-39
2023/11/30 10:54:38;;;;;;;10.40;7.97;;;6.00;99.90;;;;;;5038958;28;20529;-39
2023/11/30 10:57:07;;;;;;;8.90;7.57;;;6.00;99.90;;;;;;5040298;28;20190;-40
2023/11/30 10:59:50;;;;;;;12.38;8.20;;;6.10;99.90;;;;;;5023202;28;20430;-40
2023/11/30 11:02:18;;;;;;;9.67;7.43;;;6.10;99.90;;;;;;5023702;28;20191;-40
2023/11/30 11:04:46;;;;;;;11.40;7.83;;;6.10;99.90;;;;;;5042046;28;20460;-39
2023/11/30 11:07:17;;;;;;;10.50;7.20;;;6.10;99.90;;;;;;5041925;28;20452;-41
2023/11/30 11:09:43;;;;;;;12.73;8.60;;;6.10;99.90;;;;;;5040159;28;20235;-41
2023/11/30 11:12:25;;;;;;;10.98;8.10;;;6.10;99.90;;;;;;5030800;28;20197;-39
2023/11/30 11:15:12;;;;;;;11.13;7.40;;;6.10;99.90;;;;;;5035631;28;20303;-41
2023/11/30 11:17:49;;;;;;;11.07;7.72;;;6.10;99.90;;;;;;5036337;28;20190;-38
2023/11/30 11:20:28;;;;;;;10.40;7.80;;;6.10;99.90;;;;;;5037725;28;20274;-38
2023/11/30 11:23:08;;;;;;;9.70;6.97;;;6.10;99.90;;;;;;5038236;28;20444;-39
2023/11/30 11:25:46;;;;;;;9.40;7.75;;;6.00;99.90;;;;;;5043049;28;20268;-38
2023/11/30 11:28:17;;;;;;;9.03;6.60;;;6.10;99.90;;;;;;5040102;28;20211;-36
2023/11/30 11:30:48;;;;;;;9.67;7.13;;;6.10;99.90;;;;;;5035639;28;20572;-39
2023/11/30 11:33:18;;;;;;;10.38;8.25;;;6.00;99.90;;;;;;5044557;28;20453;-39
2023/11/30 11:35:44;;;;;;;9.07;7.03;;;6.00;99.90;;;;;;5040488;28;20191;-40
2023/11/30 11:38:10;;;;;;;7.68;6.20;;;6.00;99.90;;;;;;5034036;28;20424;-40
2023/11/30 11:40:40;;;;;;;8.57;7.20;;;6.00;99.90;;;;;;5037696;28;20608;-41
2023/11/30 11:43:07;;;;;;;8.90;7.07;;;6.20;99.90;;;;;;5043017;28;20650;-41
2023/11/30 11:45:33;;;;;;;10.20;7.10;;;6.10;99.90;;;;;;5041903;28;20438;-40
2023/11/30 11:48:01;;;;;;;7.30;6.27;;;6.10;99.90;;;;;;5039185;28;20181;-40
2023/11/30 11:50:27;;;;;;;8.20;6.00;;;6.20;99.90;;;;;;5043983;28;20471;-39
2023/11/30 11:53:03;;;;;;;7.93;6.67;;;6.20;99.90;;;;;;5042029;28;20645;-41
2023/11/30 11:55:30;;;;;;;6.85;6.05;;;6.20;99.90;;;;;;5040881;28;20438;-40
2023/11/30 11:57:58;;;;;;;10.43;7.53;;;6.20;99.90;;;;;;5040768;28;20191;-41
2023/11/30 12:00:25;;;;;;;9.20;7.30;;;6.20;99.90;;;;;;5040064;28;20431;-40
2023/11/30 12:03:20;;;;;;;7.87;6.50;;;6.20;99.90;;;;;;5043112;28;20248;-39
2023/11/30 12:05:48;;;;;;;8.20;5.90;;;6.20;99.90;;;;;;5036778;28;20530;-40
2023/11/30 12:08:28;;;;;;;7.37;6.27;;;6.20;99.90;;;;;;5041868;28;20435;-40
2023/11/30 12:10:57;;;;;;;9.40;6.50;;;6.20;99.90;;;;;;5044801;28;20886;-39
2023/11/30 12:13:26;;;;;;;7.70;6.37;;;6.20;99.90;;;;;;5043544;28;20460;-41
2023/11/30 12:15:58;;;;;;;8.90;6.00;;;6.20;99.90;;;;;;5042140;28;20457;-40
2023/11/30 12:18:24;;;;;;;7.17;5.83;;;6.10;99.90;;;;;;5040980;28;20458;-39
2023/11/30 12:20:53;;;;;;;8.77;6.47;;;6.20;99.90;;;;;;5044849;28;20447;-40
2023/11/30 12:23:19;;;;;;;8.13;5.93;;;6.10;99.90;;;;;;5041533;28;20518;-38
2023/11/30 12:25:47;;;;;;;7.90;6.07;;;6.20;99.90;;;;;;5024066;28;20949;-38
2023/11/30 12:28:12;;;;;;;6.35;5.25;;;6.20;99.90;;;;;;5039781;28;20437;-40
2023/11/30 12:30:41;;;;;;;7.00;6.30;;;6.20;99.90;;;;;;5040249;28;20688;-41
2023/11/30 12:33:07;;;;;;;7.33;5.83;;;6.10;99.90;;;;;;5041062;28;20442;-39
2023/11/30 12:35:34;;;;;;;6.67;5.67;;;6.20;99.90;;;;;;5039933;28;20599;-39
2023/11/30 12:38:00;;;;;;;7.45;5.75;;;6.50;99.90;;;;;;5040599;28;20867;-41
2023/11/30 12:40:26;;;;;;;6.83;5.60;;;6.20;99.90;;;;;;5023965;28;20266;-40
2023/11/30 12:42:52;;;;;;;7.90;5.70;;;6.30;99.90;;;;;;5039237;28;20966;-41
2023/11/30 12:45:18;;;;;;;8.13;6.10;;;6.30;99.90;;;;;;5037508;28;20463;-39
2023/11/30 12:47:45;;;;;;;7.10;6.00;;;6.30;99.90;;;;;;5042137;28;20956;-41
2023/11/30 12:50:12;;;;;;;9.20;5.82;;;6.30;99.90;;;;;;5040749;28;20555;-41
2023/11/30 12:52:41;;;;;;;8.05;6.28;;;6.30;99.90;;;;;;5022127;28;20439;-40
2023/11/30 12:55:09;;;;;;;7.22;6.05;;;6.60;99.90;;;;;;5040204;28;20425;-40